Terminal Aerodrome Forecast
Issued by NWS

Current Version | Previous Version | Text Only | Print | Product List | Glossary On
Versions: 1 2 3 4 5 6 7 8 9 10 11 12 13 14 15 16 17 18 19 20 21 22 23 24 25 26 27 28 29 30
000
FTUS43 KGLD 161720
TAFMCK
TAF
KMCK 161720Z 1618/1718 36012G18KT 4SM -RASN SCT003 OVC008
      TEMPO 1618/1621 1/2SM SN OVC003
     FM162100 34010G16KT 2SM -SN OVC015
     FM162300 34011KT 6SM -SHSN SCT003 OVC010
     FM170600 31009KT P6SM VCSH SCT015 BKN040=

USA.gov is the U.S. government's official web portal to all federal, state and local government web resources and services.